Time;durP1;ratioP1;P1;durP2;ratioP2;P2;SDS_P1;SDS_P2;PMS_P1;PMS_P2;Temp;Humidity;BMP_temperature;BMP_pressure;BME280_temperature;BME280_humidity;BME280_pressure;Samples;Min_cycle;Max_cycle;Signal;HPM_P1;HPM_P2
2023/07/10 00:01:53;;;;;;;8.83;7.17;;;22.00;84.20;;;;;;5032822;28;20437;-69
2023/07/10 00:04:22;;;;;;;7.80;6.87;;;21.90;83.20;;;;;;5031752;28;20452;-68
2023/07/10 00:06:50;;;;;;;9.87;6.57;;;21.90;83.50;;;;;;5028798;28;20687;-68
2023/07/10 00:09:18;;;;;;;7.83;6.80;;;21.80;85.00;;;;;;5013209;28;20449;-68
2023/07/10 00:11:47;;;;;;;9.10;6.70;;;21.80;83.70;;;;;;5012939;28;20509;-68
2023/07/10 00:14:19;;;;;;;8.73;6.83;;;21.80;84.10;;;;;;5031282;28;20448;-69
2023/07/10 00:16:47;;;;;;;7.60;6.80;;;21.70;83.50;;;;;;5032461;28;20465;-68
2023/07/10 00:19:15;;;;;;;8.90;7.40;;;21.70;84.60;;;;;;5032660;28;20443;-67
2023/07/10 00:21:46;;;;;;;8.63;7.83;;;21.80;80.30;;;;;;5032418;28;20444;-68
2023/07/10 00:24:14;;;;;;;7.57;6.83;;;22.10;79.70;;;;;;5026882;28;20821;-68
2023/07/10 00:26:42;;;;;;;10.00;8.93;;;22.30;79.90;;;;;;5032837;28;20477;-68
2023/07/10 00:29:17;;;;;;;7.70;7.00;;;22.40;80.00;;;;;;5032722;28;20437;-67
2023/07/10 00:31:45;;;;;;;10.07;7.50;;;22.60;78.60;;;;;;5031656;28;20520;-69
2023/07/10 00:34:15;;;;;;;7.77;6.97;;;22.80;76.30;;;;;;5032139;28;20457;-66
2023/07/10 00:36:44;;;;;;;7.77;7.17;;;22.80;76.20;;;;;;5032483;28;20514;-68
2023/07/10 00:39:20;;;;;;;8.70;7.43;;;22.70;78.00;;;;;;5018842;28;20515;-68
2023/07/10 00:41:52;;;;;;;7.70;7.00;;;22.60;80.20;;;;;;5012384;28;20453;-69
2023/07/10 00:44:23;;;;;;;8.23;7.53;;;22.50;78.30;;;;;;5011870;28;20442;-67
2023/07/10 00:46:56;;;;;;;9.03;7.10;;;22.50;78.30;;;;;;5012200;28;20473;-67
2023/07/10 00:49:30;;;;;;;7.80;7.10;;;22.40;78.90;;;;;;5030849;28;20475;-67
2023/07/10 00:52:02;;;;;;;6.80;6.17;;;22.40;79.20;;;;;;5031895;28;20441;-68
2023/07/10 00:54:35;;;;;;;8.20;7.20;;;22.50;78.10;;;;;;5031038;28;20453;-68
2023/07/10 00:57:05;;;;;;;7.03;6.33;;;22.60;77.60;;;;;;5032040;28;20565;-69
2023/07/10 00:59:39;;;;;;;7.03;6.43;;;22.50;77.70;;;;;;5032128;28;20893;-70
2023/07/10 01:02:22;;;;;;;7.50;6.80;;;22.40;80.40;;;;;;5031822;28;20469;-69
2023/07/10 01:04:56;;;;;;;8.23;6.90;;;22.40;82.20;;;;;;5031101;28;20476;-68
2023/07/10 01:07:26;;;;;;;7.73;6.63;;;22.20;82.00;;;;;;5029748;28;20476;-67
2023/07/10 01:09:58;;;;;;;7.70;6.90;;;22.00;82.90;;;;;;5030768;28;20985;-67
2023/07/10 01:12:27;;;;;;;7.37;6.67;;;22.00;81.30;;;;;;5011759;28;20513;-68
2023/07/10 01:14:55;;;;;;;8.27;7.57;;;22.00;83.80;;;;;;5011624;28;20565;-67
2023/07/10 01:17:23;;;;;;;8.00;6.97;;;22.10;81.70;;;;;;5011912;28;20442;-69
2023/07/10 01:20:00;;;;;;;8.53;6.70;;;22.30;81.10;;;;;;5021336;28;20547;-69
2023/07/10 01:22:30;;;;;;;6.93;6.33;;;22.40;80.90;;;;;;5028868;28;20943;-68
2023/07/10 01:24:59;;;;;;;7.70;7.10;;;22.40;80.10;;;;;;5029600;28;20546;-69
2023/07/10 01:27:29;;;;;;;9.07;6.17;;;22.50;79.40;;;;;;5030915;28;20979;-68
2023/07/10 01:30:01;;;;;;;6.90;6.30;;;22.60;80.40;;;;;;5030649;28;21006;-68
2023/07/10 01:32:30;;;;;;;11.40;6.30;;;22.60;79.60;;;;;;5030771;28;20503;-68
2023/07/10 01:35:01;;;;;;;9.17;6.77;;;22.50;83.80;;;;;;5030930;28;20475;-68
2023/07/10 01:37:30;;;;;;;7.70;7.00;;;22.40;82.90;;;;;;5030976;28;21175;-67
2023/07/10 01:39:58;;;;;;;6.83;6.23;;;22.20;85.00;;;;;;5029518;28;20536;-69
2023/07/10 01:42:26;;;;;;;7.90;7.07;;;22.10;84.90;;;;;;5030624;28;20443;-70
2023/07/10 01:44:54;;;;;;;7.47;6.80;;;22.00;85.60;;;;;;5030707;28;20863;-68
2023/07/10 01:47:22;;;;;;;8.00;7.10;;;22.00;84.60;;;;;;5019299;28;20478;-68
2023/07/10 01:49:52;;;;;;;6.67;6.07;;;22.00;84.50;;;;;;5020751;28;20461;-68
2023/07/10 01:52:23;;;;;;;8.33;6.63;;;22.10;84.60;;;;;;5023997;28;20452;-69
2023/07/10 01:54:52;;;;;;;7.93;7.10;;;22.00;84.30;;;;;;5030732;28;20461;-68
2023/07/10 01:57:24;;;;;;;7.60;6.87;;;21.90;84.50;;;;;;5010795;28;20994;-68
2023/07/10 01:59:55;;;;;;;7.27;6.43;;;22.10;84.40;;;;;;5011390;28;20446;-68
2023/07/10 02:02:23;;;;;;;8.20;7.37;;;22.10;86.50;;;;;;5010094;28;20532;-66
2023/07/10 02:04:52;;;;;;;7.20;6.50;;;22.00;86.50;;;;;;5010792;28;20498;-67
2023/07/10 02:07:20;;;;;;;6.70;6.10;;;21.90;87.20;;;;;;5019112;28;21234;-68
2023/07/10 02:09:48;;;;;;;7.87;7.07;;;21.80;88.80;;;;;;5030596;28;20445;-67
2023/07/10 02:12:18;;;;;;;7.30;6.70;;;21.80;89.00;;;;;;5030751;28;20475;-67
2023/07/10 02:14:46;;;;;;;8.10;6.73;;;21.70;87.60;;;;;;5030268;28;20835;-67
2023/07/10 02:17:14;;;;;;;7.07;5.70;;;21.70;86.90;;;;;;5030644;28;20447;-67
2023/07/10 02:19:42;;;;;;;8.77;6.97;;;21.70;86.40;;;;;;5031170;28;20441;-68
2023/07/10 02:22:10;;;;;;;7.97;7.17;;;21.70;86.10;;;;;;5031019;28;20467;-68
2023/07/10 02:24:41;;;;;;;8.40;7.60;;;21.70;86.30;;;;;;5023688;28;21063;-68
2023/07/10 02:27:09;;;;;;;7.00;6.30;;;21.70;89.60;;;;;;5010595;28;20445;-69
2023/07/10 02:29:39;;;;;;;8.13;7.33;;;21.70;88.90;;;;;;5010761;28;20438;-70
2023/07/10 02:32:08;;;;;;;10.00;7.10;;;21.70;90.00;;;;;;5010262;28;20446;-68
2023/07/10 02:34:36;;;;;;;7.77;7.03;;;21.70;90.30;;;;;;5010167;28;20462;-68
2023/07/10 02:37:04;;;;;;;7.23;6.53;;;21.60;91.00;;;;;;5010184;28;20453;-68
2023/07/10 02:39:35;;;;;;;7.53;6.83;;;21.60;91.30;;;;;;5010464;28;20437;-68
2023/07/10 02:42:03;;;;;;;6.80;6.20;;;21.50;91.30;;;;;;5011558;28;20454;-68
2023/07/10 02:44:31;;;;;;;8.40;7.20;;;21.40;90.90;;;;;;5010180;28;20964;-68
2023/07/10 02:47:00;;;;;;;7.47;6.53;;;21.50;90.50;;;;;;5010780;28;20492;-68
2023/07/10 02:49:28;;;;;;;7.60;7.00;;;21.70;90.20;;;;;;5010131;28;20517;-70
2023/07/10 02:51:56;;;;;;;7.80;7.00;;;21.80;89.80;;;;;;5010199;28;21022;-68
2023/07/10 02:54:24;;;;;;;7.93;7.13;;;21.90;89.30;;;;;;5009244;28;20446;-69
2023/07/10 02:56:52;;;;;;;9.60;7.47;;;21.90;89.50;;;;;;5010065;28;20499;-70
2023/07/10 02:59:20;;;;;;;10.40;7.10;;;22.00;89.80;;;;;;5011708;28;20952;-69
2023/07/10 03:01:48;;;;;;;7.20;6.50;;;22.10;89.30;;;;;;5009782;28;20515;-68
2023/07/10 03:04:17;;;;;;;8.10;7.30;;;22.10;90.40;;;;;;5009769;28;20952;-66
2023/07/10 03:06:47;;;;;;;7.93;7.10;;;22.10;90.80;;;;;;5009713;28;20956;-70
2023/07/10 03:09:16;;;;;;;8.73;7.83;;;22.00;91.10;;;;;;5010133;28;20876;-69
2023/07/10 03:11:44;;;;;;;9.97;6.63;;;22.00;90.60;;;;;;5010008;28;20485;-69
2023/07/10 03:14:12;;;;;;;8.23;7.30;;;22.00;91.20;;;;;;5009376;28;20441;-69
2023/07/10 03:16:40;;;;;;;7.27;6.67;;;22.00;91.20;;;;;;5015266;28;20915;-68
2023/07/10 03:19:08;;;;;;;10.13;6.57;;;22.00;90.90;;;;;;5029290;28;21124;-69
2023/07/10 03:21:37;;;;;;;8.30;7.50;;;22.00;91.20;;;;;;5029550;28;21034;-69
2023/07/10 03:24:06;;;;;;;8.40;7.60;;;22.10;91.00;;;;;;5028254;28;20536;-70
2023/07/10 03:26:34;;;;;;;8.97;7.67;;;22.20;91.10;;;;;;5027063;28;20468;-69
2023/07/10 03:29:03;;;;;;;8.00;7.20;;;22.30;90.80;;;;;;5028259;28;20488;-65
2023/07/10 03:31:32;;;;;;;8.03;7.23;;;22.40;90.70;;;;;;5028892;28;20479;-67
2023/07/10 03:34:00;;;;;;;7.97;7.17;;;22.50;90.40;;;;;;5023383;28;20442;-68
2023/07/10 03:36:28;;;;;;;10.40;8.53;;;22.60;89.80;;;;;;5009405;28;20465;-69
2023/07/10 03:38:58;;;;;;;9.47;7.90;;;22.60;89.40;;;;;;5025710;28;20445;-69
2023/07/10 03:41:26;;;;;;;12.17;7.53;;;22.80;88.00;;;;;;5029144;28;20441;-67
2023/07/10 03:43:55;;;;;;;10.57;8.50;;;22.80;87.80;;;;;;5029648;28;20535;-67
2023/07/10 03:46:23;;;;;;;10.80;8.10;;;22.90;87.20;;;;;;5029690;28;20461;-67
2023/07/10 03:48:51;;;;;;;11.50;7.63;;;23.00;87.40;;;;;;5029046;28;20481;-67
2023/07/10 03:51:20;;;;;;;8.83;7.83;;;23.00;87.80;;;;;;5028699;28;20445;-68
2023/07/10 03:53:48;;;;;;;10.00;7.70;;;22.80;87.60;;;;;;5008997;28;20874;-67
2023/07/10 03:56:17;;;;;;;10.33;8.80;;;22.70;89.20;;;;;;5009555;28;20472;-68
2023/07/10 03:58:46;;;;;;;10.03;8.10;;;22.60;88.80;;;;;;5009125;28;20536;-70
2023/07/10 04:01:15;;;;;;;8.60;7.40;;;22.60;90.40;;;;;;5009440;28;20529;-68
2023/07/10 04:03:44;;;;;;;9.07;8.03;;;22.60;90.50;;;;;;5009030;28;20457;-67
2023/07/10 04:06:15;;;;;;;9.03;8.03;;;22.60;90.00;;;;;;5047196;28;20483;-68
2023/07/10 04:08:44;;;;;;;8.60;7.70;;;22.60;89.80;;;;;;5022921;28;20482;-67
2023/07/10 04:11:14;;;;;;;9.53;7.47;;;22.60;90.70;;;;;;5012824;28;21007;-68
2023/07/10 04:13:43;;;;;;;12.03;8.00;;;22.60;90.90;;;;;;5015298;28;20451;-70
2023/07/10 04:16:13;;;;;;;9.30;7.50;;;22.60;91.20;;;;;;5032607;28;20913;-69
2023/07/10 04:18:42;;;;;;;8.03;7.23;;;22.70;91.70;;;;;;5028842;28;20448;-74
2023/07/10 04:21:14;;;;;;;8.17;6.83;;;22.80;91.80;;;;;;5028924;28;20441;-76
2023/07/10 04:23:42;;;;;;;10.10;8.10;;;22.90;91.40;;;;;;5028177;28;20457;-71
2023/07/10 04:26:15;;;;;;;8.47;7.43;;;22.90;91.30;;;;;;5030576;28;21014;-69
2023/07/10 04:28:45;;;;;;;9.67;7.77;;;22.80;92.00;;;;;;5031732;28;21016;-70
2023/07/10 04:31:13;;;;;;;8.40;7.50;;;22.80;91.40;;;;;;5031963;28;20444;-71
2023/07/10 04:33:41;;;;;;;8.03;7.33;;;23.00;90.10;;;;;;5031874;28;20452;-71
2023/07/10 04:36:09;;;;;;;9.30;7.50;;;23.00;90.20;;;;;;5026488;28;21054;-71
2023/07/10 04:38:37;;;;;;;8.80;7.90;;;23.10;90.30;;;;;;5024270;28;20857;-71
2023/07/10 04:41:07;;;;;;;9.00;8.10;;;23.10;90.20;;;;;;5031478;28;20947;-70
2023/07/10 04:43:35;;;;;;;8.50;7.33;;;23.00;90.40;;;;;;5027752;28;20514;-71
2023/07/10 04:46:07;;;;;;;9.50;7.97;;;22.90;90.80;;;;;;5031512;28;20552;-72
2023/07/10 04:48:35;;;;;;;11.60;7.70;;;22.90;90.90;;;;;;5031490;28;20532;-70
2023/07/10 04:51:05;;;;;;;8.03;7.30;;;22.90;92.00;;;;;;5031224;28;20840;-71
2023/07/10 04:53:34;;;;;;;12.20;8.20;;;22.80;91.90;;;;;;5030709;28;20445;-70
2023/07/10 04:56:04;;;;;;;9.23;8.33;;;22.70;93.10;;;;;;5031754;28;20471;-68
2023/07/10 04:58:48;;;;;;;10.10;8.53;;;22.50;92.30;;;;;;5031469;28;20970;-71
2023/07/10 05:01:18;;;;;;;12.00;8.30;;;22.40;92.60;;;;;;5030069;28;20457;-70
2023/07/10 05:03:46;;;;;;;8.23;7.53;;;22.30;92.50;;;;;;5030994;28;20456;-64
2023/07/10 05:06:15;;;;;;;11.70;8.60;;;22.20;92.60;;;;;;5031298;28;20499;-65
2023/07/10 05:08:43;;;;;;;9.13;8.27;;;22.10;92.70;;;;;;5031394;28;20480;-65
2023/07/10 05:11:11;;;;;;;12.90;9.17;;;22.10;93.10;;;;;;5031279;28;20441;-66
2023/07/10 05:13:39;;;;;;;9.90;7.87;;;22.20;92.60;;;;;;5030970;28;20962;-66
2023/07/10 05:16:07;;;;;;;11.23;7.93;;;22.40;92.90;;;;;;5031586;28;20461;-65
2023/07/10 05:18:37;;;;;;;9.97;7.80;;;22.60;92.90;;;;;;5018894;28;20484;-66
2023/07/10 05:21:05;;;;;;;9.70;8.33;;;22.60;92.90;;;;;;5031244;28;20441;-68
2023/07/10 05:23:35;;;;;;;8.43;7.50;;;22.60;93.10;;;;;;5030753;28;20503;-67
2023/07/10 05:26:05;;;;;;;10.63;8.87;;;22.80;92.90;;;;;;5031005;28;21312;-66
2023/07/10 05:28:36;;;;;;;8.77;7.90;;;22.90;93.00;;;;;;5030844;28;20872;-66
2023/07/10 05:31:06;;;;;;;9.80;8.33;;;23.10;92.40;;;;;;5030767;28;20473;-68
2023/07/10 05:33:34;;;;;;;13.33;10.17;;;23.20;91.80;;;;;;5031033;28;20440;-67
2023/07/10 05:36:07;;;;;;;13.53;10.10;;;23.40;90.60;;;;;;5016489;28;20466;-66
2023/07/10 05:38:36;;;;;;;9.43;8.53;;;23.50;90.10;;;;;;5012165;28;20437;-66
2023/07/10 05:41:04;;;;;;;14.60;9.70;;;23.60;90.60;;;;;;5030795;28;20457;-68
2023/07/10 05:43:34;;;;;;;15.93;9.63;;;23.70;90.10;;;;;;5030547;28;20524;-66
2023/07/10 05:46:03;;;;;;;12.60;9.00;;;23.80;90.70;;;;;;5030833;28;20461;-67
2023/07/10 05:48:32;;;;;;;11.30;9.33;;;24.00;90.40;;;;;;5030944;28;20575;-66
2023/07/10 05:51:01;;;;;;;13.83;9.73;;;24.10;89.50;;;;;;5011056;28;20477;-67
2023/07/10 05:53:30;;;;;;;10.97;8.77;;;24.40;88.80;;;;;;5025037;28;20463;-65
2023/07/10 05:55:59;;;;;;;9.53;8.53;;;24.60;88.60;;;;;;5030798;28;21057;-67
2023/07/10 05:58:29;;;;;;;10.33;9.23;;;24.70;89.70;;;;;;5030605;28;20986;-67
2023/07/10 06:00:59;;;;;;;10.80;9.70;;;24.70;88.20;;;;;;5030790;28;20429;-66
2023/07/10 06:03:31;;;;;;;11.20;9.10;;;24.80;89.40;;;;;;5030298;28;20523;-68
2023/07/10 06:06:01;;;;;;;11.53;10.40;;;24.90;89.60;;;;;;5030440;28;21061;-67
2023/07/10 06:08:31;;;;;;;9.70;8.77;;;25.00;88.20;;;;;;5022447;28;20952;-67
2023/07/10 06:10:59;;;;;;;10.37;9.37;;;25.10;86.40;;;;;;5029214;28;20572;-71
2023/07/10 06:13:27;;;;;;;10.27;9.13;;;25.20;84.50;;;;;;5030350;28;20449;-70
2023/07/10 06:15:57;;;;;;;11.33;9.20;;;25.40;82.10;;;;;;5030731;28;20838;-71
2023/07/10 06:18:26;;;;;;;10.80;9.70;;;25.60;81.70;;;;;;5030722;28;20874;-70
2023/07/10 06:20:56;;;;;;;15.50;10.63;;;25.80;80.80;;;;;;5030738;28;20460;-69
2023/07/10 06:23:26;;;;;;;12.27;9.60;;;26.00;78.70;;;;;;5027508;28;20518;-70
2023/07/10 06:25:56;;;;;;;11.87;8.60;;;26.30;78.20;;;;;;5010769;28;20532;-67
2023/07/10 06:28:24;;;;;;;12.00;8.87;;;26.70;75.30;;;;;;5010625;28;20446;-69
2023/07/10 06:30:57;;;;;;;10.47;8.83;;;26.80;75.10;;;;;;5009642;28;20481;-69
2023/07/10 06:33:26;;;;;;;9.20;8.30;;;27.00;73.60;;;;;;5010295;28;20442;-69
2023/07/10 06:35:54;;;;;;;9.20;8.30;;;27.10;72.50;;;;;;5009891;28;20549;-69
2023/07/10 06:38:22;;;;;;;9.80;8.80;;;27.10;73.10;;;;;;5010469;28;20484;-70
2023/07/10 06:40:51;;;;;;;14.00;8.70;;;27.30;71.70;;;;;;5011545;28;20446;-69
2023/07/10 06:43:22;;;;;;;10.27;9.20;;;27.50;70.70;;;;;;5010288;28;20850;-69
2023/07/10 06:45:50;;;;;;;11.00;8.67;;;27.60;71.10;;;;;;5010291;28;20465;-68
2023/07/10 06:48:19;;;;;;;11.33;9.70;;;27.70;70.30;;;;;;5010094;28;20450;-69
2023/07/10 06:50:48;;;;;;;13.27;9.00;;;27.60;70.00;;;;;;5010149;28;20477;-70
2023/07/10 06:53:16;;;;;;;11.13;8.90;;;27.60;70.60;;;;;;5010067;28;20442;-70
2023/07/10 06:55:54;;;;;;;9.07;8.10;;;27.50;71.30;;;;;;5011286;28;20592;-70
2023/07/10 06:58:23;;;;;;;10.33;8.03;;;27.40;72.10;;;;;;5010107;28;20437;-69
2023/07/10 07:00:52;;;;;;;7.93;7.13;;;27.50;72.40;;;;;;5009962;28;20441;-70
2023/07/10 07:03:20;;;;;;;9.73;8.47;;;27.70;72.40;;;;;;5009768;28;20442;-69
2023/07/10 07:05:49;;;;;;;7.93;6.87;;;28.00;70.60;;;;;;5010166;28;20897;-69
2023/07/10 07:08:18;;;;;;;8.03;7.33;;;28.20;71.00;;;;;;5010245;28;20468;-70
2023/07/10 07:10:46;;;;;;;8.50;7.33;;;28.70;68.70;;;;;;5010912;28;20473;-69
2023/07/10 07:13:14;;;;;;;8.13;7.43;;;28.80;67.60;;;;;;5009495;28;20546;-69
2023/07/10 07:15:44;;;;;;;8.23;7.43;;;28.80;67.50;;;;;;5009938;28;20473;-68
2023/07/10 07:18:12;;;;;;;10.53;7.70;;;28.80;67.30;;;;;;5009819;28;20508;-69
2023/07/10 07:20:40;;;;;;;9.70;7.50;;;28.90;66.30;;;;;;5009822;28;20473;-69
2023/07/10 07:23:07;;;;;;;9.33;7.10;;;28.90;66.70;;;;;;5009679;28;20484;-70
2023/07/10 07:25:35;;;;;;;10.03;6.87;;;28.70;66.60;;;;;;5020304;28;20469;-70
2023/07/10 07:28:04;;;;;;;10.10;7.30;;;28.60;67.20;;;;;;5029712;28;20990;-70
2023/07/10 07:30:32;;;;;;;7.13;6.53;;;28.30;68.10;;;;;;5029694;28;20869;-70
2023/07/10 07:33:02;;;;;;;8.17;7.40;;;28.20;68.70;;;;;;5029632;28;20591;-69
2023/07/10 07:35:32;;;;;;;10.97;7.50;;;28.00;68.90;;;;;;5029807;28;20511;-68
2023/07/10 07:37:59;;;;;;;8.13;6.60;;;27.90;69.10;;;;;;5030114;28;20552;-69
2023/07/10 07:40:27;;;;;;;6.40;5.80;;;27.90;70.00;;;;;;5028436;28;20476;-70
2023/07/10 07:42:56;;;;;;;5.03;4.63;;;27.80;70.20;;;;;;5033942;28;20468;-68
2023/07/10 07:45:24;;;;;;;7.20;5.97;;;27.70;70.80;;;;;;5034248;28;20469;-70
2023/07/10 07:47:52;;;;;;;5.80;5.20;;;27.80;70.90;;;;;;5033909;28;20445;-70
2023/07/10 07:50:21;;;;;;;5.73;5.23;;;28.00;70.40;;;;;;5033601;28;20448;-70
2023/07/10 07:52:49;;;;;;;5.80;5.30;;;28.10;69.80;;;;;;5016873;28;20453;-68
2023/07/10 07:55:17;;;;;;;5.47;5.07;;;28.20;69.30;;;;;;5014162;28;20481;-68
2023/07/10 07:57:45;;;;;;;7.17;5.30;;;28.30;69.30;;;;;;5016557;28;20523;-69
2023/07/10 08:00:14;;;;;;;6.53;5.83;;;28.30;68.90;;;;;;5014250;28;20478;-68
2023/07/10 08:02:42;;;;;;;7.32;5.20;;;28.30;69.40;;;;;;5019434;28;20488;-68
2023/07/10 08:05:11;;;;;;;6.13;5.53;;;28.50;69.00;;;;;;5033116;28;20230;-68
2023/07/10 08:08:00;;;;;;;5.67;5.27;;;28.70;68.10;;;;;;5033295;28;20440;-69
2023/07/10 08:10:33;;;;;;;5.83;5.43;;;28.60;68.50;;;;;;5033676;28;20444;-68
2023/07/10 08:13:02;;;;;;;5.87;5.37;;;28.60;68.50;;;;;;5033448;28;20456;-68
2023/07/10 08:15:29;;;;;;;5.73;5.30;;;28.60;67.90;;;;;;5049708;28;20476;-69
2023/07/10 08:17:57;;;;;;;5.97;5.47;;;28.70;69.30;;;;;;5039605;28;20591;-69
2023/07/10 08:20:26;;;;;;;6.43;5.80;;;28.60;68.40;;;;;;5013649;28;20474;-70
2023/07/10 08:22:53;;;;;;;6.80;5.40;;;28.60;69.30;;;;;;5013266;28;20456;-69
2023/07/10 08:25:23;;;;;;;7.07;6.03;;;28.70;69.80;;;;;;5013374;28;20470;-69
2023/07/10 08:27:51;;;;;;;8.93;5.97;;;28.90;69.80;;;;;;5013302;28;20442;-70
2023/07/10 08:30:19;;;;;;;6.87;5.77;;;29.00;69.70;;;;;;5013059;28;20537;-70
2023/07/10 08:32:47;;;;;;;8.20;6.10;;;29.00;67.80;;;;;;5013709;28;20489;-70
2023/07/10 08:35:15;;;;;;;6.80;5.90;;;28.90;69.10;;;;;;5013413;28;20470;-70
2023/07/10 08:37:43;;;;;;;6.97;6.37;;;28.90;69.00;;;;;;5013352;28;20445;-70
2023/07/10 08:40:17;;;;;;;7.60;6.20;;;28.80;69.90;;;;;;5012942;28;20446;-69
2023/07/10 08:42:46;;;;;;;7.27;5.40;;;28.80;70.50;;;;;;5012291;28;20441;-69
2023/07/10 08:45:21;;;;;;;8.73;5.90;;;28.60;71.10;;;;;;5012863;28;20469;-70
2023/07/10 08:47:57;;;;;;;8.53;6.13;;;28.70;71.20;;;;;;5012603;28;20820;-70
2023/07/10 08:50:29;;;;;;;6.37;5.77;;;28.80;69.90;;;;;;5013796;28;20882;-69
2023/07/10 08:53:02;;;;;;;6.53;6.03;;;28.90;69.70;;;;;;5011473;28;20482;-69
2023/07/10 08:55:39;;;;;;;6.93;6.33;;;29.10;69.70;;;;;;5012221;28;20560;-70
2023/07/10 08:58:18;;;;;;;6.80;6.20;;;29.20;69.80;;;;;;5012476;28;20456;-69
2023/07/10 09:00:48;;;;;;;8.80;6.70;;;29.60;69.00;;;;;;5012411;28;20434;-70
2023/07/10 09:03:30;;;;;;;6.83;6.23;;;29.60;68.90;;;;;;5015002;28;20449;-71
2023/07/10 09:05:58;;;;;;;8.30;6.47;;;29.50;68.40;;;;;;5011977;28;20477;-71
2023/07/10 09:08:28;;;;;;;8.73;6.80;;;29.60;69.00;;;;;;5012294;28;20846;-71
2023/07/10 09:11:01;;;;;;;7.13;6.30;;;29.90;67.10;;;;;;5012271;28;20533;-69
2023/07/10 09:13:39;;;;;;;7.83;7.03;;;30.20;66.50;;;;;;5011810;28;20491;-70
2023/07/10 09:16:14;;;;;;;8.67;7.13;;;30.30;66.20;;;;;;5011732;28;20457;-69
2023/07/10 09:18:49;;;;;;;7.60;6.97;;;29.90;67.10;;;;;;5013070;28;20449;-70
2023/07/10 09:21:19;;;;;;;7.47;6.87;;;29.60;68.70;;;;;;5015704;28;20544;-70
2023/07/10 09:23:48;;;;;;;7.50;6.77;;;29.40;68.80;;;;;;5019057;28;20452;-69
2023/07/10 09:26:19;;;;;;;8.17;7.47;;;29.40;69.70;;;;;;5031574;28;20528;-70
2023/07/10 09:29:00;;;;;;;7.10;6.50;;;29.50;68.90;;;;;;5031437;28;21104;-70
2023/07/10 09:31:40;;;;;;;12.70;6.90;;;29.70;69.00;;;;;;5031578;28;20530;-70
2023/07/10 09:34:10;;;;;;;7.27;6.63;;;29.90;69.40;;;;;;5029659;28;20459;-69
2023/07/10 09:36:38;;;;;;;7.00;6.50;;;30.10;66.80;;;;;;5011937;28;20500;-70
2023/07/10 09:39:06;;;;;;;7.70;6.83;;;30.00;66.60;;;;;;5011409;28;20476;-69
2023/07/10 09:41:38;;;;;;;8.67;7.23;;;30.10;66.80;;;;;;5030084;28;20448;-69
2023/07/10 09:44:16;;;;;;;7.90;6.77;;;29.90;66.50;;;;;;5028942;28;20528;-71
2023/07/10 09:46:45;;;;;;;7.50;6.37;;;29.70;67.60;;;;;;5030978;28;20468;-69
2023/07/10 09:49:20;;;;;;;7.50;6.90;;;29.90;67.10;;;;;;5030525;28;20972;-68
2023/07/10 09:51:54;;;;;;;6.67;6.03;;;30.00;66.90;;;;;;5029451;28;20518;-70
2023/07/10 09:54:23;;;;;;;7.33;6.60;;;30.30;64.70;;;;;;5030751;28;20532;-69
2023/07/10 09:56:54;;;;;;;8.00;7.30;;;30.30;64.40;;;;;;5030213;28;20472;-69
2023/07/10 09:59:33;;;;;;;10.70;7.03;;;30.10;65.00;;;;;;5031105;28;20503;-68
2023/07/10 10:02:15;;;;;;;6.47;5.87;;;30.30;65.40;;;;;;5030903;28;20440;-69
2023/07/10 10:04:43;;;;;;;7.53;6.57;;;30.50;64.60;;;;;;5029813;28;20503;-69
2023/07/10 10:07:15;;;;;;;7.60;6.90;;;30.60;64.40;;;;;;5030451;28;20477;-70
2023/07/10 10:09:43;;;;;;;7.93;6.63;;;30.80;61.40;;;;;;5030990;28;20445;-67
2023/07/10 10:12:19;;;;;;;7.03;6.33;;;31.20;62.40;;;;;;5031288;28;20472;-69
2023/07/10 10:14:53;;;;;;;8.23;7.10;;;31.80;60.00;;;;;;5030422;28;20583;-69
2023/07/10 10:17:25;;;;;;;7.27;5.97;;;32.10;58.30;;;;;;5030987;28;20531;-69
2023/07/10 10:20:03;;;;;;;8.37;6.33;;;31.90;58.50;;;;;;5030279;28;20457;-70
2023/07/10 10:22:32;;;;;;;7.67;6.97;;;32.00;58.50;;;;;;5026989;28;20892;-69
2023/07/10 10:25:00;;;;;;;8.90;8.20;;;31.90;58.60;;;;;;5030123;28;20540;-71
2023/07/10 10:27:36;;;;;;;9.40;8.50;;;31.80;58.50;;;;;;5030999;28;20480;-69
2023/07/10 10:30:21;;;;;;;8.90;7.30;;;32.20;57.80;;;;;;5027856;28;20687;-69
2023/07/10 10:32:58;;;;;;;8.37;7.57;;;32.40;57.90;;;;;;5025890;28;20583;-70
2023/07/10 10:35:37;;;;;;;7.67;7.07;;;32.40;56.90;;;;;;5028292;28;20460;-70
2023/07/10 10:38:19;;;;;;;10.20;7.03;;;32.50;57.00;;;;;;5021468;28;20434;-70
2023/07/10 10:40:54;;;;;;;7.53;6.93;;;32.80;56.40;;;;;;5048776;28;20523;-72
2023/07/10 10:43:44;;;;;;;9.33;7.43;;;32.80;55.90;;;;;;5048295;28;20530;-71
2023/07/10 10:46:23;;;;;;;8.27;7.47;;;32.90;55.90;;;;;;5048426;28;20535;-71
2023/07/10 10:49:02;;;;;;;8.70;7.10;;;32.20;56.40;;;;;;5048807;28;20451;-72
2023/07/10 10:51:36;;;;;;;7.87;7.23;;;32.00;57.80;;;;;;5048687;28;20569;-70
2023/07/10 10:54:14;;;;;;;8.00;7.20;;;31.80;57.40;;;;;;5026917;28;21006;-71
2023/07/10 10:57:18;;;;;;;7.53;6.93;;;31.90;57.80;;;;;;5008500;28;20517;-70
2023/07/10 10:59:52;;;;;;;9.43;8.20;;;32.10;56.70;;;;;;5008527;28;20442;-70
2023/07/10 11:02:37;;;;;;;8.43;7.50;;;32.10;56.70;;;;;;5007920;28;21044;-71
2023/07/10 11:05:16;;;;;;;9.40;6.83;;;32.00;57.30;;;;;;5008346;28;20910;-71
2023/07/10 11:07:46;;;;;;;7.60;6.90;;;32.10;56.60;;;;;;5008684;28;20448;-70
2023/07/10 11:10:16;;;;;;;8.63;6.47;;;32.10;56.20;;;;;;5023927;28;20452;-71
2023/07/10 11:12:44;;;;;;;8.53;7.00;;;32.10;56.20;;;;;;5027266;28;20480;-70
2023/07/10 11:15:17;;;;;;;9.87;6.93;;;32.30;55.30;;;;;;5027126;28;20504;-70
2023/07/10 11:17:53;;;;;;;8.20;6.37;;;32.60;55.00;;;;;;5028295;28;21049;-72
2023/07/10 11:20:24;;;;;;;7.77;6.97;;;33.10;53.80;;;;;;5028275;28;20479;-70
2023/07/10 11:22:54;;;;;;;8.50;6.83;;;33.20;52.90;;;;;;5028069;28;20532;-70
2023/07/10 11:25:33;;;;;;;7.30;6.47;;;33.30;52.30;;;;;;5014067;28;20469;-70
2023/07/10 11:28:03;;;;;;;6.40;5.90;;;33.20;52.60;;;;;;5008846;28;20473;-69
2023/07/10 11:30:33;;;;;;;7.33;6.60;;;33.30;52.00;;;;;;5008439;28;20456;-70
2023/07/10 11:33:15;;;;;;;7.50;7.00;;;33.60;51.70;;;;;;5007936;28;20516;-70
2023/07/10 11:36:15;;;;;;;7.10;6.50;;;33.80;50.90;;;;;;5014300;28;20560;-70
2023/07/10 11:38:57;;;;;;;7.30;6.60;;;33.90;50.10;;;;;;5024826;28;20441;-70
2023/07/10 11:41:28;;;;;;;6.73;6.23;;;34.30;49.60;;;;;;5026036;28;20829;-71
2023/07/10 11:44:19;;;;;;;10.07;5.90;;;34.60;48.80;;;;;;5027024;28;20810;-70
2023/07/10 11:47:01;;;;;;;8.70;6.73;;;34.40;46.60;;;;;;5022711;28;20442;-69
2023/07/10 11:49:46;;;;;;;6.30;5.73;;;34.20;47.00;;;;;;5026814;28;20465;-69
2023/07/10 11:52:30;;;;;;;8.40;6.53;;;34.10;46.70;;;;;;5023234;28;21025;-70
2023/07/10 11:55:12;;;;;;;6.43;5.80;;;34.00;46.50;;;;;;5026227;28;20954;-69
2023/07/10 11:57:41;;;;;;;7.70;6.67;;;34.00;45.90;;;;;;5023652;28;20476;-71
2023/07/10 12:00:26;;;;;;;6.17;5.57;;;34.30;45.60;;;;;;5028270;28;20460;-71
2023/07/10 12:02:57;;;;;;;6.63;6.07;;;34.50;44.30;;;;;;5024077;28;21208;-68
2023/07/10 12:05:35;;;;;;;9.17;6.20;;;34.50;42.60;;;;;;5028557;28;20456;-70
2023/07/10 12:08:10;;;;;;;6.90;6.30;;;34.30;41.80;;;;;;5014770;28;20480;-71
2023/07/10 12:10:41;;;;;;;6.40;5.80;;;34.30;42.60;;;;;;5009730;28;21027;-72
2023/07/10 12:13:22;;;;;;;7.67;5.83;;;34.20;41.70;;;;;;5008980;28;20478;-71
2023/07/10 12:15:52;;;;;;;6.97;6.47;;;34.30;42.70;;;;;;5009358;28;21027;-70
2023/07/10 12:18:23;;;;;;;6.40;5.90;;;34.60;43.10;;;;;;5009821;28;20799;-70
2023/07/10 12:20:54;;;;;;;6.73;5.87;;;34.70;42.10;;;;;;5009787;28;20438;-72
2023/07/10 12:23:22;;;;;;;7.00;6.40;;;34.90;42.70;;;;;;5009324;28;20434;-70
2023/07/10 12:25:52;;;;;;;6.73;5.97;;;35.30;43.20;;;;;;5010750;28;20491;-70
2023/07/10 12:28:23;;;;;;;6.20;5.60;;;35.40;42.70;;;;;;5018191;28;20503;-70
2023/07/10 12:30:58;;;;;;;5.73;5.33;;;35.30;40.10;;;;;;5032330;28;20441;-69
2023/07/10 12:33:33;;;;;;;7.47;5.90;;;35.40;40.40;;;;;;5031800;28;20975;-70
2023/07/10 12:36:05;;;;;;;7.57;6.00;;;35.20;41.30;;;;;;5025992;28;20507;-68
2023/07/10 12:38:34;;;;;;;6.20;5.60;;;35.30;41.50;;;;;;5028292;28;20464;-70
2023/07/10 12:41:03;;;;;;;7.10;6.10;;;35.50;40.20;;;;;;5028460;28;20441;-68
2023/07/10 12:43:31;;;;;;;10.23;6.47;;;35.60;39.70;;;;;;5019992;28;20435;-69
2023/07/10 12:46:00;;;;;;;6.80;5.90;;;35.40;38.90;;;;;;5032399;28;20464;-69
2023/07/10 12:48:32;;;;;;;7.67;6.37;;;34.80;40.10;;;;;;5032357;28;20465;-69
2023/07/10 12:51:04;;;;;;;8.53;6.07;;;34.90;40.50;;;;;;5025116;28;20467;-69
2023/07/10 12:53:36;;;;;;;7.00;6.30;;;35.10;40.30;;;;;;5025767;28;20468;-69
2023/07/10 12:56:08;;;;;;;7.43;6.43;;;35.30;40.30;;;;;;5022612;28;20473;-69
2023/07/10 12:58:38;;;;;;;5.80;5.40;;;35.50;40.10;;;;;;5031120;28;20441;-70
2023/07/10 13:01:19;;;;;;;9.97;5.90;;;35.40;38.30;;;;;;5030997;28;20527;-69
2023/07/10 13:04:00;;;;;;;7.07;6.47;;;35.10;39.70;;;;;;5031877;28;21014;-70
2023/07/10 13:06:29;;;;;;;6.83;6.13;;;35.30;39.60;;;;;;5031746;28;20461;-69